Gisele A — 9HA3562 — position and weather

sailwx.info

Track history (hours):
 
Tides and Currents Weather Stations Pressure Air Temp Water Temp Dewpoint Dewpoint Depression Visibility Wind Speed Wind Dir Waves Ship Positions

Gisele A

Last reported at 2018-May-28 09:00 UTC. Time now 2018-May-28 09:27 UTC.
Position N 39°27' W 000°19'.

Length 208 m; draft 9.5 m.

Type: Ship (hazmat cat A). MMSI: 229735000.

Date/timePositionNaut miles runAvg speedWind from/ knotsBaromVisibWave heightAir tempDewpointWater temp
2018-May-28 09:00N 39°27' W 000°19'0 0.0
2018-May-28 08:30N 39°27' W 000°19'0 0.0
2018-May-28 08:00N 39°27' W 000°19'0 0.0
2018-May-28 07:30N 39°27' W 000°19'0 0.0
2018-May-28 07:00N 39°27' W 000°19'0 0.0
2018-May-28 06:30N 39°27' W 000°19'0 0.0
2018-May-28 05:57N 39°27' W 000°19'0 0.0
2018-May-28 05:24N 39°27' W 000°19'0 0.0
2018-May-28 05:00N 39°27' W 000°19'0 0.0
2018-May-28 04:30N 39°27' W 000°19'0 0.0
2018-May-28 04:00N 39°27' W 000°19'0 0.0
2018-May-28 03:30N 39°27' W 000°19'0 0.0
2018-May-28 03:00N 39°27' W 000°19'0 0.0
2018-May-28 02:24N 39°27' W 000°19'0 0.0
2018-May-28 02:00N 39°27' W 000°19'0 0.0
2018-May-28 01:30N 39°27' W 000°19'0 0.0
2018-May-28 01:00N 39°27' W 000°19'0 0.0
2018-May-28 00:24N 39°27' W 000°19'0 0.0
2018-May-28 00:00N 39°27' W 000°19'0 0.0
2018-May-27 23:30N 39°27' W 000°19'0 0.0
2018-May-27 23:00N 39°27' W 000°19'0 0.0
2018-May-27 22:06N 39°27' W 000°19'0 0.2
2018-May-27 22:00N 39°27' W 000°19'0 0.0
2018-May-27 21:30N 39°27' W 000°19'0 0.0
2018-May-27 20:12N 39°27' W 000°19'0 0.0
2018-May-27 19:54N 39°27' W 000°19'0 0.0
2018-May-27 19:18N 39°27' W 000°19'1 2.6
2018-May-27 19:00N 39°26' W 000°19'3 4.6
2018-May-27 18:16N 39°23' W 000°16'0 0.0
2018-May-27 17:52N 39°23' W 000°16'0 0.0
2018-May-27 17:28N 39°23' W 000°16'0 0.0
2018-May-27 16:40N 39°23' W 000°16'0 0.0
2018-May-26 19:58N 39°23' W 000°16'0 0.0
2018-May-26 15:10N 39°23' W 000°16'0 0.0
2018-May-26 14:52N 39°23' W 000°16'0 0.0
2018-May-26 09:44N 39°23' W 000°16'1 3.9
2018-May-26 09:29N 39°23' W 000°15'78 9.3
2018-May-26 01:08N 38°06' W 000°04'212.0
2018-May-26 01:00N 38°05' W 000°05'612.3
2018-May-26 00:30N 37°60' W 000°09'611.9
2018-May-25 23:59N 37°54' W 000°13'611.8
2018-May-25 23:30N 37°50' W 000°17'611.7
2018-May-25 23:00N 37°45' W 000°21'611.9
2018-May-25 22:30N 37°40' W 000°25'712.3
2018-May-25 21:58N 37°34' W 000°30'612.2
2018-May-25 21:30N 37°30' W 000°35'612.4
2018-May-25 21:00N 37°27' W 000°41'612.1
2018-May-25 20:30N 37°23' W 000°47'611.9
2018-May-25 20:00N 37°19' W 000°53'611.9
2018-May-25 19:30N 37°15' W 000°59'611.8
2018-May-25 18:58N 37°11' W 001°05'811.8
2018-May-25 18:18N 37°06' W 001°11'18711.8
2018-May-25 02:24N 36°04' W 004°51'813.9
2018-May-25 01:49N 36°02' W 005°02'613.7
2018-May-25 01:22N 36°02' W 005°09'714.0
2018-May-25 00:52N 36°02' W 005°17'513.1
2018-May-25 00:30N 36°05' W 005°22'5 7.8
2018-May-24 23:52N 36°09' W 005°26'0 0.1
2018-May-24 23:30N 36°09' W 005°26'0 0.0
2018-May-24 23:00N 36°09' W 005°26'0 0.0
2018-May-24 22:30N 36°09' W 005°26'0 0.0
2018-May-24 22:00N 36°09' W 005°26'0 0.0
2018-May-24 21:30N 36°09' W 005°26'0 0.0
2018-May-24 21:00N 36°09' W 005°26'0 0.0
2018-May-24 20:30N 36°09' W 005°26'0 0.0
2018-May-24 20:00N 36°09' W 005°26'0 0.0
2018-May-24 19:30N 36°09' W 005°26'0 0.0
2018-May-24 16:30N 36°09' W 005°26'0 0.0
2018-May-24 16:00N 36°09' W 005°26'0 0.0
2018-May-24 14:36N 36°09' W 005°26'0 0.1
2018-May-24 08:35N 36°09' W 005°26'1 5.2
2018-May-24 08:27N 36°09' W 005°25'3 5.9
2018-May-24 07:59N 36°07' W 005°23'612.4
2018-May-24 07:30N 36°01' W 005°21'10 0.5
2018-May-23 10:11N 35°57' W 005°32'211.2
2018-May-23 10:00N 35°58' W 005°31'713.1
2018-May-23 09:30N 36°00' W 005°23'612.3
2018-May-23 09:00N 36°02' W 005°16'611.1
2018-May-23 08:29N 36°03' W 005°09'24814.3
2018-May-22 15:10N 36°41' W 000°04'316.5
2018-May-22 14:59N 36°42' W 000°00'916.5
2018-May-22 14:27N 36°43' E 000°10'716.3
2018-May-22 14:00N 36°44' E 000°20'816.3
2018-May-22 13:30N 36°45' E 000°29'816.2
2018-May-22 13:00N 36°46' E 000°39'816.2
2018-May-22 12:30N 36°47' E 000°50'1216.2
2018-May-22 11:46N 36°49' E 001°04'415.9
2018-May-22 11:30N 36°49' E 001°10'816.0
2018-May-22 10:59N 36°51' E 001°20'  
Track history (hours):
 
Tides and Currents Weather Stations Pressure Air Temp Water Temp Dewpoint Dewpoint Depression Visibility Wind Speed Wind Dir Waves Ship Positions

Gisele A

Last reported at 2018-May-28 09:00 UTC. Time now 2018-May-28 09:27 UTC.
Position N 39°27' W 000°19'.

Length 208 m; draft 9.5 m.

Type: Ship (hazmat cat A). MMSI: 229735000.

Date/timePositionNaut miles runAvg speedWind from/ knotsBaromVisibWave heightAir tempDewpointWater temp
2018-May-28 09:00N 39°27' W 000°19'0 0.0
2018-May-28 08:30N 39°27' W 000°19'0 0.0
2018-May-28 08:00N 39°27' W 000°19'0 0.0
2018-May-28 07:30N 39°27' W 000°19'0 0.0
2018-May-28 07:00N 39°27' W 000°19'0 0.0
2018-May-28 06:30N 39°27' W 000°19'0 0.0
2018-May-28 05:57N 39°27' W 000°19'0 0.0
2018-May-28 05:24N 39°27' W 000°19'0 0.0
2018-May-28 05:00N 39°27' W 000°19'0 0.0
2018-May-28 04:30N 39°27' W 000°19'0 0.0
2018-May-28 04:00N 39°27' W 000°19'0 0.0
2018-May-28 03:30N 39°27' W 000°19'0 0.0
2018-May-28 03:00N 39°27' W 000°19'0 0.0
2018-May-28 02:24N 39°27' W 000°19'0 0.0
2018-May-28 02:00N 39°27' W 000°19'0 0.0
2018-May-28 01:30N 39°27' W 000°19'0 0.0
2018-May-28 01:00N 39°27' W 000°19'0 0.0
2018-May-28 00:24N 39°27' W 000°19'0 0.0
2018-May-28 00:00N 39°27' W 000°19'0 0.0
2018-May-27 23:30N 39°27' W 000°19'0 0.0
2018-May-27 23:00N 39°27' W 000°19'0 0.0
2018-May-27 22:06N 39°27' W 000°19'0 0.2
2018-May-27 22:00N 39°27' W 000°19'0 0.0
2018-May-27 21:30N 39°27' W 000°19'0 0.0
2018-May-27 20:12N 39°27' W 000°19'0 0.0
2018-May-27 19:54N 39°27' W 000°19'0 0.0
2018-May-27 19:18N 39°27' W 000°19'1 2.6
2018-May-27 19:00N 39°26' W 000°19'3 4.6
2018-May-27 18:16N 39°23' W 000°16'0 0.0
2018-May-27 17:52N 39°23' W 000°16'0 0.0
2018-May-27 17:28N 39°23' W 000°16'0 0.0
2018-May-27 16:40N 39°23' W 000°16'0 0.0
2018-May-26 19:58N 39°23' W 000°16'0 0.0
2018-May-26 15:10N 39°23' W 000°16'0 0.0
2018-May-26 14:52N 39°23' W 000°16'0 0.0
2018-May-26 09:44N 39°23' W 000°16'1 3.9
2018-May-26 09:29N 39°23' W 000°15'78 9.3
2018-May-26 01:08N 38°06' W 000°04'212.0
2018-May-26 01:00N 38°05' W 000°05'612.3
2018-May-26 00:30N 37°60' W 000°09'611.9
2018-May-25 23:59N 37°54' W 000°13'611.8
2018-May-25 23:30N 37°50' W 000°17'611.7
2018-May-25 23:00N 37°45' W 000°21'611.9
2018-May-25 22:30N 37°40' W 000°25'712.3
2018-May-25 21:58N 37°34' W 000°30'612.2
2018-May-25 21:30N 37°30' W 000°35'612.4
2018-May-25 21:00N 37°27' W 000°41'612.1
2018-May-25 20:30N 37°23' W 000°47'611.9
2018-May-25 20:00N 37°19' W 000°53'611.9
2018-May-25 19:30N 37°15' W 000°59'611.8
2018-May-25 18:58N 37°11' W 001°05'811.8
2018-May-25 18:18N 37°06' W 001°11'18711.8
2018-May-25 02:24N 36°04' W 004°51'813.9
2018-May-25 01:49N 36°02' W 005°02'613.7
2018-May-25 01:22N 36°02' W 005°09'714.0
2018-May-25 00:52N 36°02' W 005°17'513.1
2018-May-25 00:30N 36°05' W 005°22'5 7.8
2018-May-24 23:52N 36°09' W 005°26'0 0.1
2018-May-24 23:30N 36°09' W 005°26'0 0.0
2018-May-24 23:00N 36°09' W 005°26'0 0.0
2018-May-24 22:30N 36°09' W 005°26'0 0.0
2018-May-24 22:00N 36°09' W 005°26'0 0.0
2018-May-24 21:30N 36°09' W 005°26'0 0.0
2018-May-24 21:00N 36°09' W 005°26'0 0.0
2018-May-24 20:30N 36°09' W 005°26'0 0.0
2018-May-24 20:00N 36°09' W 005°26'0 0.0
2018-May-24 19:30N 36°09' W 005°26'0 0.0
2018-May-24 16:30N 36°09' W 005°26'0 0.0
2018-May-24 16:00N 36°09' W 005°26'0 0.0
2018-May-24 14:36N 36°09' W 005°26'0 0.1
2018-May-24 08:35N 36°09' W 005°26'1 5.2
2018-May-24 08:27N 36°09' W 005°25'3 5.9
2018-May-24 07:59N 36°07' W 005°23'612.4
2018-May-24 07:30N 36°01' W 005°21'10 0.5
2018-May-23 10:11N 35°57' W 005°32'211.2
2018-May-23 10:00N 35°58' W 005°31'713.1
2018-May-23 09:30N 36°00' W 005°23'612.3
2018-May-23 09:00N 36°02' W 005°16'611.1
2018-May-23 08:29N 36°03' W 005°09'24814.3
2018-May-22 15:10N 36°41' W 000°04'316.5
2018-May-22 14:59N 36°42' W 000°00'916.5
2018-May-22 14:27N 36°43' E 000°10'716.3
2018-May-22 14:00N 36°44' E 000°20'816.3
2018-May-22 13:30N 36°45' E 000°29'816.2
2018-May-22 13:00N 36°46' E 000°39'816.2
2018-May-22 12:30N 36°47' E 000°50'1216.2
2018-May-22 11:46N 36°49' E 001°04'415.9
2018-May-22 11:30N 36°49' E 001°10'816.0
2018-May-22 10:59N 36°51' E 001°20'  

Dump ship's entire track history